Time;durP1;ratioP1;P1;durP2;ratioP2;P2;SDS_P1;SDS_P2;PMS_P1;PMS_P2;Temp;Humidity;BMP_temperature;BMP_pressure;BME280_temperature;BME280_humidity;BME280_pressure;Samples;Min_cycle;Max_cycle;Signal;HPM_P1;HPM_P2
2022/05/26 00:01:23;;;;;;;;;;;;;;;16.50;41.41;100698.78;4960422;28;114438;-65
2022/05/26 00:03:48;;;;;;;;;;;;;;;16.48;41.04;100699.09;4946602;28;98595;-72
2022/05/26 00:06:17;;;;;;;;;;;;;;;16.47;41.46;100697.50;4940853;28;127434;-74
2022/05/26 00:08:44;;;;;;;;;;;;;;;16.45;41.49;100707.88;4949790;28;98153;-65
2022/05/26 00:11:15;;;;;;;;;;;;;;;16.42;41.36;100701.09;4943128;28;98536;-72
2022/05/26 00:13:42;;;;;;;;;;;;;;;16.41;41.23;100704.13;4954629;28;104833;-71
2022/05/26 00:16:07;;;;;;;;;;;;;;;16.40;41.43;100702.53;4941300;28;98609;-65
2022/05/26 00:18:33;;;;;;;;;;;;;;;16.36;41.28;100702.31;4940390;28;118596;-72
2022/05/26 00:20:59;;;;;;;;;;;;;;;16.35;41.55;100703.44;4945764;28;126291;-72
2022/05/26 00:23:25;;;;;;;;;;;;;;;16.34;41.67;100699.06;4949197;28;121430;-65
2022/05/26 00:25:51;;;;;;;;;;;;;;;16.34;41.33;100701.00;4939036;28;119106;-65
2022/05/26 00:28:17;;;;;;;;;;;;;;;16.34;41.55;100690.91;4940313;28;122727;-65
2022/05/26 00:30:43;;;;;;;;;;;;;;;16.35;41.48;100700.72;4950801;28;99041;-72
2022/05/26 00:33:09;;;;;;;;;;;;;;;16.35;41.69;100695.28;4956916;28;98519;-71
2022/05/26 00:35:36;;;;;;;;;;;;;;;16.36;41.63;100696.06;4961114;28;98015;-71
2022/05/26 00:38:06;;;;;;;;;;;;;;;16.39;41.78;100693.56;4960283;28;97804;-72
2022/05/26 00:40:32;;;;;;;;;;;;;;;16.41;41.90;100696.78;4940944;28;113482;-72
2022/05/26 00:42:58;;;;;;;;;;;;;;;16.42;41.75;100697.56;4929415;28;127949;-72
2022/05/26 00:45:25;;;;;;;;;;;;;;;16.41;41.58;100695.97;4959289;28;98651;-65
2022/05/26 00:47:51;;;;;;;;;;;;;;;16.40;41.82;100702.53;4958884;28;98228;-65
2022/05/26 00:50:28;;;;;;;;;;;;;;;16.39;42.00;100692.75;4940055;28;99115;-65
2022/05/26 00:53:05;;;;;;;;;;;;;;;16.37;41.94;100689.53;4957868;28;98321;-65
2022/05/26 00:55:38;;;;;;;;;;;;;;;16.36;41.93;100688.72;4942525;28;98493;-65
2022/05/26 00:58:17;;;;;;;;;;;;;;;16.36;41.96;100688.72;4943946;28;99257;-72
2022/05/26 01:00:43;;;;;;;;;;;;;;;16.37;41.97;100689.53;4938982;28;126103;-65
2022/05/26 01:03:31;;;;;;;;;;;;;;;16.36;42.14;100680.56;4944632;28;126210;-66
2022/05/26 01:06:08;;;;;;;;;;;;;;;16.37;41.91;100684.88;4941464;28;97977;-73
2022/05/26 01:08:40;;;;;;;;;;;;;;;16.37;41.98;100684.88;4958671;28;97865;-66
2022/05/26 01:11:07;;;;;;;;;;;;;;;16.37;42.26;100684.88;4942274;28;106736;-65
2022/05/26 01:13:32;;;;;;;;;;;;;;;16.37;42.05;100678.63;4947518;28;98578;-65
2022/05/26 01:16:13;;;;;;;;;;;;;;;16.36;42.21;100675.13;4955117;28;128099;-65
2022/05/26 01:19:07;;;;;;;;;;;;;;;16.39;42.22;100677.25;4951208;28;118151;-65
2022/05/26 01:21:36;;;;;;;;;;;;;;;16.40;42.19;100683.47;4956670;28;98829;-71
2022/05/26 01:24:08;;;;;;;;;;;;;;;16.40;42.23;100684.28;4961024;28;98739;-72
2022/05/26 01:27:08;;;;;;;;;;;;;;;16.40;42.19;100687.00;4960664;28;97814;-65
2022/05/26 01:30:02;;;;;;;;;;;;;;;16.40;42.42;100684.28;4914537;28;98021;-66
2022/05/26 01:32:28;;;;;;;;;;;;;;;16.37;42.41;100687.59;4940832;28;98401;-65
2022/05/26 01:35:05;;;;;;;;;;;;;;;16.37;42.48;100682.16;4960316;28;98632;-72
2022/05/26 01:37:56;;;;;;;;;;;;;;;16.38;42.50;100683.75;4958737;28;125426;-72
2022/05/26 01:40:43;;;;;;;;;;;;;;;16.39;42.32;100690.03;4956508;28;98006;-66
2022/05/26 01:43:48;;;;;;;;;;;;;;;16.40;42.66;100681.56;4958411;28;98414;-65
2022/05/26 01:46:29;;;;;;;;;;;;;;;16.40;42.64;100678.84;4928339;28;126734;-71
2022/05/26 01:49:15;;;;;;;;;;;;;;;16.42;42.42;100683.97;4940756;28;98406;-65
2022/05/26 01:52:03;;;;;;;;;;;;;;;16.44;42.57;100688.00;4949857;28;122423;-72
2022/05/26 01:54:32;;;;;;;;;;;;;;;16.44;42.73;100684.50;4956412;28;98080;-65
2022/05/26 01:57:10;;;;;;;;;;;;;;;16.44;42.78;100684.50;4954993;28;104184;-65
2022/05/26 01:59:52;;;;;;;;;;;;;;;16.43;42.60;100680.16;4954299;28;98474;-72
2022/05/26 02:02:24;;;;;;;;;;;;;;;16.44;42.52;100692.66;4960308;28;97825;-71
2022/05/26 02:05:00;;;;;;;;;;;;;;;16.44;42.64;100684.50;4954897;28;98883;-72
2022/05/26 02:07:37;;;;;;;;;;;;;;;16.44;42.77;100679.06;4957029;28;127319;-65
2022/05/26 02:10:06;;;;;;;;;;;;;;;16.45;42.80;100686.91;4941246;28;101915;-65
2022/05/26 02:12:39;;;;;;;;;;;;;;;16.45;42.44;100676.00;4941558;28;97960;-66
2022/05/26 02:15:17;;;;;;;;;;;;;;;16.45;42.55;100681.47;4949205;28;98071;-66
2022/05/26 02:17:46;;;;;;;;;;;;;;;16.48;42.57;100676.53;4937684;28;99086;-66
2022/05/26 02:20:18;;;;;;;;;;;;;;;16.48;42.55;100674.63;4937708;28;98506;-71
2022/05/26 02:23:16;;;;;;;;;;;;;;;16.49;42.18;100678.94;4938788;28;103709;-71
2022/05/26 02:25:42;;;;;;;;;;;;;;;16.50;42.44;100677.81;4948649;28;98905;-72
2022/05/26 02:28:08;;;;;;;;;;;;;;;16.50;42.41;100675.09;4959562;28;128662;-71
2022/05/26 02:30:38;;;;;;;;;;;;;;;16.51;42.25;100679.47;4939943;28;109153;-65
2022/05/26 02:33:08;;;;;;;;;;;;;;;16.53;42.19;100679.16;4939694;28;98769;-65
2022/05/26 02:35:39;;;;;;;;;;;;;;;16.54;42.21;100680.75;4958303;28;98248;-71
2022/05/26 02:38:08;;;;;;;;;;;;;;;16.55;42.38;100685.13;4956894;28;126005;-65
2022/05/26 02:40:34;;;;;;;;;;;;;;;16.57;42.33;100677.44;4937320;28;124372;-71
2022/05/26 02:43:02;;;;;;;;;;;;;;;16.59;42.26;100676.03;4943651;28;97620;-72
2022/05/26 02:46:01;;;;;;;;;;;;;;;16.60;42.35;100672.19;4956045;28;125159;-71
2022/05/26 02:49:00;;;;;;;;;;;;;;;16.60;42.27;100683.09;4958430;28;98526;-71
2022/05/26 02:52:05;;;;;;;;;;;;;;;16.61;42.03;100684.69;4958179;28;128421;-66
2022/05/26 02:54:46;;;;;;;;;;;;;;;16.62;41.82;100685.50;4946318;28;98275;-65
2022/05/26 02:57:25;;;;;;;;;;;;;;;16.61;42.13;100687.41;4944164;28;99102;-72
2022/05/26 03:00:07;;;;;;;;;;;;;;;16.62;42.31;100688.22;4942592;28;99137;-66
2022/05/26 03:03:11;;;;;;;;;;;;;;;16.60;42.11;100683.09;4963119;28;98071;-73
2022/05/26 03:06:00;;;;;;;;;;;;;;;16.60;42.21;100682.28;4962292;28;98003;-65
2022/05/26 03:08:27;;;;;;;;;;;;;;;16.60;42.26;100680.38;4932825;28;98566;-72
2022/05/26 03:10:55;;;;;;;;;;;;;;;16.61;42.19;100686.59;4956336;28;98122;-65
2022/05/26 03:13:21;;;;;;;;;;;;;;;16.61;42.39;100679.25;4946271;28;128620;-71
2022/05/26 03:15:47;;;;;;;;;;;;;;;16.63;42.16;100679.75;4959220;28;122566;-71
2022/05/26 03:18:13;;;;;;;;;;;;;;;16.63;42.11;100678.97;4952086;28;99367;-72
2022/05/26 03:20:39;;;;;;;;;;;;;;;16.63;42.22;100679.75;4941952;28;128462;-65
2022/05/26 03:23:05;;;;;;;;;;;;;;;16.66;42.17;100686.50;4951785;28;125617;-65
2022/05/26 03:25:31;;;;;;;;;;;;;;;16.66;42.25;100678.34;4960902;28;122528;-71
2022/05/26 03:27:57;;;;;;;;;;;;;;;16.67;42.10;100690.84;4935642;28;127993;-65
2022/05/26 03:30:23;;;;;;;;;;;;;;;16.67;42.14;100688.94;4939973;28;109779;-72
2022/05/26 03:32:48;;;;;;;;;;;;;;;16.67;42.08;100686.22;4941350;28;128776;-71
2022/05/26 03:40:48;;;;;;;;;;;;;;;16.71;42.32;100691.06;4941603;28;98140;-65
2022/05/26 03:43:15;;;;;;;;;;;;;;;16.71;42.15;100688.34;4941488;28;98054;-65
2022/05/26 03:45:41;;;;;;;;;;;;;;;16.69;42.28;100694.88;4948254;28;98239;-66
2022/05/26 03:48:07;;;;;;;;;;;;;;;16.69;42.45;100694.06;4958018;28;128038;-65
2022/05/26 03:50:33;;;;;;;;;;;;;;;16.69;42.38;100702.22;4960802;28;98650;-72
2022/05/26 03:52:59;;;;;;;;;;;;;;;16.70;42.33;100703.84;4950834;28;97774;-71
2022/05/26 03:55:25;;;;;;;;;;;;;;;16.70;42.23;100706.56;4947543;28;123316;-72
2022/05/26 03:57:51;;;;;;;;;;;;;;;16.72;42.19;100709.78;4921326;28;100039;-71
2022/05/26 04:00:19;;;;;;;;;;;;;;;16.75;42.42;100713.88;4955020;28;122957;-65
2022/05/26 04:02:45;;;;;;;;;;;;;;;16.80;42.46;100717.28;4939800;28;111803;-65
2022/05/26 04:05:12;;;;;;;;;;;;;;;16.86;42.35;100713.38;4939097;28;122617;-65
2022/05/26 04:07:38;;;;;;;;;;;;;;;16.91;42.30;100721.41;4957563;28;127824;-71
2022/05/26 04:10:05;;;;;;;;;;;;;;;16.96;42.17;100723.22;4959802;28;128403;-66
2022/05/26 04:12:31;;;;;;;;;;;;;;;17.01;42.32;100720.38;4960151;28;124110;-65
2022/05/26 04:14:57;;;;;;;;;;;;;;;17.06;42.28;100724.94;4959535;28;122487;-71
2022/05/26 04:17:23;;;;;;;;;;;;;;;17.11;42.10;100722.09;4956677;28;127644;-71
2022/05/26 04:19:48;;;;;;;;;;;;;;;17.21;41.96;100719.16;4952574;28;127158;-65
2022/05/26 04:22:23;;;;;;;;;;;;;;;17.30;41.80;100720.06;4945815;28;128463;-71
2022/05/26 04:24:50;;;;;;;;;;;;;;;17.40;41.87;100728.00;4941226;28;97903;-70
2022/05/26 04:27:18;;;;;;;;;;;;;;;17.47;41.80;100724.84;4939585;28;98166;-65
2022/05/26 04:29:44;;;;;;;;;;;;;;;17.55;41.85;100728.78;4958582;28;98771;-70
2022/05/26 04:32:10;;;;;;;;;;;;;;;17.63;41.67;100730.75;4960084;28;113919;-72
2022/05/26 04:34:36;;;;;;;;;;;;;;;17.72;41.63;100728.09;4960334;28;97965;-71
2022/05/26 04:37:02;;;;;;;;;;;;;;;17.80;41.56;100733.66;4951303;28;98897;-65
2022/05/26 04:39:28;;;;;;;;;;;;;;;17.90;41.64;100733.41;4946437;28;98386;-65
2022/05/26 04:41:58;;;;;;;;;;;;;;;17.99;41.41;100735.38;4940296;28;126920;-65
2022/05/26 04:44:24;;;;;;;;;;;;;;;18.04;41.55;100730.63;4940965;28;99497;-65
2022/05/26 04:46:50;;;;;;;;;;;;;;;18.13;41.40;100733.41;4955498;28;126426;-65
2022/05/26 04:49:16;;;;;;;;;;;;;;;18.22;41.25;100730.72;4958775;28;127949;-65
2022/05/26 04:51:42;;;;;;;;;;;;;;;18.29;41.55;100733.81;4960816;28;97943;-65
2022/05/26 04:54:08;;;;;;;;;;;;;;;18.36;41.35;100735.00;4957935;28;122398;-66
2022/05/26 04:56:35;;;;;;;;;;;;;;;18.45;41.14;100737.75;4958672;28;108163;-71
2022/05/26 04:59:01;;;;;;;;;;;;;;;18.51;41.15;100736.53;4950767;28;98243;-65
2022/05/26 05:01:27;;;;;;;;;;;;;;;18.58;41.07;100741.50;4956118;28;125814;-65
2022/05/26 05:03:53;;;;;;;;;;;;;;;18.64;41.13;100743.00;4948119;28;122595;-65
2022/05/26 05:06:19;;;;;;;;;;;;;;;18.71;41.01;100739.84;4952429;28;116345;-71
2022/05/26 05:08:45;;;;;;;;;;;;;;;18.79;40.74;100750.78;4945244;28;98352;-71
2022/05/26 05:11:11;;;;;;;;;;;;;;;18.85;40.81;100741.31;4950015;28;103050;-65
2022/05/26 05:13:37;;;;;;;;;;;;;;;18.97;40.76;100746.19;4948935;28;119699;-71
2022/05/26 05:16:16;;;;;;;;;;;;;;;19.07;40.54;100748.63;4941623;28;98101;-71
2022/05/26 05:18:44;;;;;;;;;;;;;;;19.18;40.57;100743.69;4937856;28;99039;-65
2022/05/26 05:21:10;;;;;;;;;;;;;;;19.30;40.36;100746.59;4937457;28;98805;-71
2022/05/26 05:23:39;;;;;;;;;;;;;;;19.44;40.18;100743.72;4918314;28;109044;-71
2022/05/26 05:26:05;;;;;;;;;;;;;;;19.60;39.91;100747.56;4936559;28;99306;-72
2022/05/26 05:28:33;;;;;;;;;;;;;;;19.79;39.74;100750.03;4937912;28;128307;-72
2022/05/26 05:31:11;;;;;;;;;;;;;;;20.03;39.55;100754.19;4924925;28;123659;-64
2022/05/26 05:33:49;;;;;;;;;;;;;;;20.43;39.44;100762.97;4946810;28;122503;-65
2022/05/26 05:36:23;;;;;;;;;;;;;;;20.65;39.15;100761.97;4934109;28;98978;-71
2022/05/26 05:38:49;;;;;;;;;;;;;;;20.79;38.95;100759.81;4939085;28;109301;-66
2022/05/26 05:41:15;;;;;;;;;;;;;;;21.01;38.63;100763.41;4935815;28;127261;-64
2022/05/26 05:43:41;;;;;;;;;;;;;;;21.39;38.33;100759.84;4933664;28;120305;-71
2022/05/26 05:46:08;;;;;;;;;;;;;;;21.54;38.07;100768.28;4939363;28;126917;-72
2022/05/26 05:48:34;;;;;;;;;;;;;;;21.57;38.02;100775.03;4940906;28;98805;-71
2022/05/26 05:51:01;;;;;;;;;;;;;;;21.60;37.88;100787.28;4935419;28;109750;-64
2022/05/26 05:53:27;;;;;;;;;;;;;;;21.67;37.69;100776.56;4936504;28;97710;-71
2022/05/26 05:55:53;;;;;;;;;;;;;;;21.70;37.68;100790.44;4936234;28;98833;-71
2022/05/26 05:58:19;;;;;;;;;;;;;;;21.70;37.53;100782.19;4935221;28;126860;-65
2022/05/26 06:00:45;;;;;;;;;;;;;;;21.63;37.64;100781.94;4953933;28;117074;-71
2022/05/26 06:03:11;;;;;;;;;;;;;;;21.57;37.86;100786.00;4939988;28;121785;-71
2022/05/26 06:05:37;;;;;;;;;;;;;;;21.54;37.74;100784.72;4933591;28;126078;-71
2022/05/26 06:08:03;;;;;;;;;;;;;;;21.54;37.72;100776.50;4940011;28;98232;-71
2022/05/26 06:10:29;;;;;;;;;;;;;;;21.54;37.70;100776.50;4938708;28;98066;-65
2022/05/26 06:12:55;;;;;;;;;;;;;;;21.65;37.54;100785.13;4936788;28;97936;-64
2022/05/26 06:15:21;;;;;;;;;;;;;;;22.01;36.99;100770.00;4934898;28;127553;-65
2022/05/26 06:17:47;;;;;;;;;;;;;;;23.18;35.81;100773.19;4936617;28;127558;-71
2022/05/26 06:20:13;;;;;;;;;;;;;;;24.70;34.38;100766.13;4940225;28;128133;-72
2022/05/26 06:22:46;;;;;;;;;;;;;;;25.08;34.04;100781.22;4933377;28;97854;-65
2022/05/26 06:25:13;;;;;;;;;;;;;;;25.32;34.22;100778.25;4934710;28;126346;-65
2022/05/26 06:30:26;;;;;;;;;;;;;;;26.11;32.56;100786.25;4934887;28;97759;-70
2022/05/26 06:38:23;;;;;;;;;;;;;;;25.36;33.39;100792.94;4940084;28;98042;-72
2022/05/26 06:40:49;;;;;;;;;;;;;;;25.04;33.39;100803.19;4936053;28;115258;-65
2022/05/26 06:43:15;;;;;;;;;;;;;;;25.08;33.49;100798.56;4940735;28;121879;-66
2022/05/26 06:45:41;;;;;;;;;;;;;;;24.89;33.44;100798.50;4936571;28;99302;-72
2022/05/26 06:48:08;;;;;;;;;;;;;;;25.01;33.37;100803.91;4938143;28;100883;-72
2022/05/26 06:50:34;;;;;;;;;;;;;;;24.98;33.45;100804.59;4933443;28;104908;-65
2022/05/26 06:53:00;;;;;;;;;;;;;;;25.36;33.12;100800.41;4943864;28;100554;-71
2022/05/26 06:55:26;;;;;;;;;;;;;;;25.41;32.99;100806.44;4933934;28;126577;-72
2022/05/26 06:57:52;;;;;;;;;;;;;;;25.11;33.21;100806.16;4937551;28;98254;-65
2022/05/26 07:00:18;;;;;;;;;;;;;;;24.79;33.83;100813.59;4934690;28;128608;-70
2022/05/26 07:02:45;;;;;;;;;;;;;;;24.43;34.02;100812.66;4925512;28;98093;-64
2022/05/26 07:05:11;;;;;;;;;;;;;;;24.27;34.12;100811.00;4934166;28;122017;-65
2022/05/26 07:07:38;;;;;;;;;;;;;;;24.34;34.17;100808.44;4941815;28;98877;-72
2022/05/26 07:10:04;;;;;;;;;;;;;;;24.59;33.83;100792.59;4935056;28;98489;-71
2022/05/26 07:12:30;;;;;;;;;;;;;;;25.32;33.29;100791.25;4940982;28;120852;-65
2022/05/26 07:14:56;;;;;;;;;;;;;;;25.40;32.97;100798.53;4939148;28;125567;-65
2022/05/26 07:17:22;;;;;;;;;;;;;;;25.42;32.73;100788.72;4934074;28;127865;-70
2022/05/26 07:19:48;;;;;;;;;;;;;;;25.40;33.00;100801.28;4934253;28;127762;-63
2022/05/26 07:22:14;;;;;;;;;;;;;;;25.37;33.29;100799.25;4934604;28;108294;-70
2022/05/26 07:24:41;;;;;;;;;;;;;;;25.50;32.76;100803.47;4934569;28;127880;-66
2022/05/26 07:27:07;;;;;;;;;;;;;;;25.81;32.57;100804.56;4935602;28;99204;-73
2022/05/26 07:29:33;;;;;;;;;;;;;;;25.89;32.61;100815.38;4933968;28;100535;-66
2022/05/26 07:31:59;;;;;;;;;;;;;;;25.89;32.65;100812.63;4935177;28;116520;-65
2022/05/26 07:34:25;;;;;;;;;;;;;;;26.18;32.22;100811.25;4936169;28;99149;-73
2022/05/26 07:42:22;;;;;;;;;;;;;;;26.43;31.60;100828.28;4935971;28;98053;-66
2022/05/26 07:44:49;;;;;;;;;;;;;;;26.15;31.67;100813.94;4934104;28;115806;-65
2022/05/26 07:47:15;;;;;;;;;;;;;;;25.98;32.04;100822.66;4924814;28;119753;-66
2022/05/26 07:49:43;;;;;;;;;;;;;;;25.92;31.90;100830.44;4940681;28;98026;-72
2022/05/26 07:52:09;;;;;;;;;;;;;;;25.85;31.94;100827.53;4939853;28;98425;-73
2022/05/26 07:54:35;;;;;;;;;;;;;;;25.65;32.38;100830.22;4936079;28;99084;-73
2022/05/26 07:57:01;;;;;;;;;;;;;;;25.50;32.35;100833.03;4937955;28;101626;-73
2022/05/26 07:59:27;;;;;;;;;;;;;;;25.26;32.58;100834.84;4938555;28;98503;-73
2022/05/26 08:01:53;;;;;;;;;;;;;;;24.98;33.17;100832.97;4936485;28;105360;-66
2022/05/26 08:04:19;;;;;;;;;;;;;;;24.81;33.38;100838.06;4936111;28;128378;-72
2022/05/26 08:06:46;;;;;;;;;;;;;;;24.49;33.54;100843.53;4919602;28;123210;-66
2022/05/26 08:09:17;;;;;;;;;;;;;;;24.39;33.71;100850.31;4951746;28;98080;-65
2022/05/26 08:11:43;;;;;;;;;;;;;;;24.34;33.91;100849.75;4949764;28;98413;-65
2022/05/26 08:14:09;;;;;;;;;;;;;;;24.38;33.75;100845.97;4936914;28;127709;-72
2022/05/26 08:16:36;;;;;;;;;;;;;;;25.79;32.18;100846.34;4937675;28;128368;-73
2022/05/26 08:19:02;;;;;;;;;;;;;;;26.47;32.09;100846.94;4938986;28;120425;-66
2022/05/26 08:21:28;;;;;;;;;;;;;;;26.93;31.61;100833.94;4931227;28;98478;-73
2022/05/26 08:23:53;;;;;;;;;;;;;;;26.53;32.05;100839.97;4937140;28;108823;-66
2022/05/26 08:26:20;;;;;;;;;;;;;;;26.33;32.25;100842.72;4937726;28;98466;-65
2022/05/26 08:28:46;;;;;;;;;;;;;;;26.08;32.45;100841.41;4942100;28;127505;-72
2022/05/26 08:31:13;;;;;;;;;;;;;;;25.89;32.43;100856.81;4936792;28;118838;-73
2022/05/26 08:33:39;;;;;;;;;;;;;;;25.74;32.78;100840.25;4948464;28;99566;-66
2022/05/26 08:36:08;;;;;;;;;;;;;;;25.41;32.80;100847.03;4946721;28;128988;-66
2022/05/26 08:38:34;;;;;;;;;;;;;;;25.18;33.04;100857.91;4937923;28;98412;-66
2022/05/26 08:41:00;;;;;;;;;;;;;;;24.91;33.50;100857.59;4936607;28;122567;-66
2022/05/26 08:43:46;;;;;;;;;;;;;;;25.83;32.48;100858.25;4937520;28;127399;-73
2022/05/26 08:46:15;;;;;;;;;;;;;;;26.08;32.30;100856.03;4938871;28;98416;-73
2022/05/26 08:49:09;;;;;;;;;;;;;;;26.36;32.38;100866.03;4935611;28;98276;-73
2022/05/26 08:51:43;;;;;;;;;;;;;;;27.88;30.96;100858.75;4938163;28;121479;-66
2022/05/26 08:54:22;;;;;;;;;;;;;;;28.32;30.49;100860.06;4941344;28;98462;-66
2022/05/26 08:56:48;;;;;;;;;;;;;;;28.84;29.72;100864.59;4946305;28;98772;-66
2022/05/26 08:59:15;;;;;;;;;;;;;;;28.75;30.03;100858.56;4939429;28;128405;-65
2022/05/26 09:01:42;;;;;;;;;;;;;;;31.41;27.46;100862.16;4938624;28;111125;-73
2022/05/26 09:04:10;;;;;;;;;;;;;;;31.60;27.49;100872.06;4936556;28;127835;-73
2022/05/26 09:12:55;;;;;;;;;;;;;;;33.12;26.00;100880.06;4935469;28;99055;-66
2022/05/26 09:14:53;;;;;;;;;;;;;;;31.47;27.57;100873.66;4935150;28;98203;-73
2022/05/26 09:17:19;;;;;;;;;;;;;;;31.19;27.60;100880.81;4936495;28;102366;-74
2022/05/26 09:19:45;;;;;;;;;;;;;;;30.97;27.98;100862.53;4942696;28;127666;-66
2022/05/26 09:22:31;;;;;;;;;;;;;;;30.38;28.48;100862.84;4938054;28;98261;-73
2022/05/26 09:24:58;;;;;;;;;;;;;;;30.49;28.42;100865.63;4934266;28;99332;-66
2022/05/26 09:27:31;;;;;;;;;;;;;;;30.32;28.52;100873.53;4936776;28;99391;-73
2022/05/26 09:30:15;;;;;;;;;;;;;;;31.18;27.56;100870.09;4934398;28;98397;-73
2022/05/26 09:32:41;;;;;;;;;;;;;;;33.08;26.18;100876.50;4942152;28;98900;-73
2022/05/26 09:35:35;;;;;;;;;;;;;;;33.35;26.53;100884.25;4935525;28;128377;-72
2022/05/26 09:38:02;;;;;;;;;;;;;;;32.90;26.42;100882.22;4933689;28;98304;-64
2022/05/26 09:40:35;;;;;;;;;;;;;;;32.16;27.03;100883.44;4934713;28;98670;-64
2022/05/26 09:43:17;;;;;;;;;;;;;;;34.38;25.28;100885.09;4952853;28;98000;-64
2022/05/26 09:45:48;;;;;;;;;;;;;;;34.48;24.93;100886.19;4953811;28;98830;-73
2022/05/26 09:48:33;;;;;;;;;;;;;;;33.99;25.12;100889.22;4951170;28;119093;-72
2022/05/26 09:51:12;;;;;;;;;;;;;;;33.77;25.07;100901.84;4936035;28;97994;-66
2022/05/26 09:53:45;;;;;;;;;;;;;;;32.82;25.99;100897.44;4942226;28;98018;-72
2022/05/26 09:56:40;;;;;;;;;;;;;;;31.80;26.44;100888.34;4937242;28;99259;-72
2022/05/26 09:59:26;;;;;;;;;;;;;;;31.61;26.66;100882.00;4938577;28;98669;-65
2022/05/26 10:02:00;;;;;;;;;;;;;;;31.88;26.75;100887.94;4937973;28;98083;-65
2022/05/26 10:04:49;;;;;;;;;;;;;;;31.13;27.26;100885.22;4937396;28;97857;-65
2022/05/26 10:07:46;;;;;;;;;;;;;;;30.85;27.42;100899.09;4934522;28;98911;-65
2022/05/26 10:10:24;;;;;;;;;;;;;;;30.54;27.49;100891.06;4936188;28;98383;-72
2022/05/26 10:12:58;;;;;;;;;;;;;;;31.09;27.33;100890.00;4943025;28;103150;-64
2022/05/26 10:15:46;;;;;;;;;;;;;;;31.16;27.13;100897.53;4938408;28;121896;-71
2022/05/26 10:18:25;;;;;;;;;;;;;;;30.55;27.70;100889.88;4936779;28;98426;-72
2022/05/26 10:21:25;;;;;;;;;;;;;;;30.18;27.90;100883.78;4936225;28;98675;-72
2022/05/26 10:24:12;;;;;;;;;;;;;;;31.81;26.57;100887.91;4951141;28;98763;-66
2022/05/26 10:26:56;;;;;;;;;;;;;;;32.86;26.02;100884.25;4949747;28;122250;-72
2022/05/26 10:29:45;;;;;;;;;;;;;;;32.45;26.12;100884.13;4940240;28;99233;-65
2022/05/26 10:32:30;;;;;;;;;;;;;;;33.59;25.46;100879.66;4950585;28;98742;-64
2022/05/26 10:35:23;;;;;;;;;;;;;;;33.59;25.20;100888.84;4935392;28;127540;-72
2022/05/26 10:38:14;;;;;;;;;;;;;;;32.34;26.45;100894.50;4935907;28;100019;-64
2022/05/26 10:40:46;;;;;;;;;;;;;;;31.13;26.97;100874.09;4938578;28;101321;-64
2022/05/26 10:43:18;;;;;;;;;;;;;;;30.32;27.56;100875.50;4937412;28;98588;-65
2022/05/26 10:45:47;;;;;;;;;;;;;;;30.20;27.56;100876.66;4937786;28;98221;-65
2022/05/26 10:48:42;;;;;;;;;;;;;;;29.69;27.96;100874.00;4942308;28;98304;-72
2022/05/26 10:51:15;;;;;;;;;;;;;;;29.19;28.98;100871.66;4939544;28;119670;-64
2022/05/26 10:54:07;;;;;;;;;;;;;;;29.30;28.29;100871.75;4918000;28;98634;-65
2022/05/26 10:56:59;;;;;;;;;;;;;;;29.42;28.84;100865.09;4936522;28;98543;-65
2022/05/26 10:59:27;;;;;;;;;;;;;;;31.45;27.19;100870.50;4924443;28;100165;-72
2022/05/26 11:02:12;;;;;;;;;;;;;;;30.87;27.53;100878.03;4940921;28;98335;-71
2022/05/26 11:04:41;;;;;;;;;;;;;;;30.19;28.21;100877.06;4954915;28;98754;-72
2022/05/26 11:07:16;;;;;;;;;;;;;;;30.09;28.25;100884.94;4941219;28;103333;-65
2022/05/26 11:09:57;;;;;;;;;;;;;;;30.40;27.92;100873.56;4940363;28;98381;-65
2022/05/26 11:12:40;;;;;;;;;;;;;;;31.44;26.89;100875.28;4937167;28;99374;-72
2022/05/26 11:18:29;;;;;;;;;;;;;;;31.43;26.84;100882.03;4943785;28;98939;-65
2022/05/26 11:20:57;;;;;;;;;;;;;;;31.39;27.09;100877.66;4938626;28;118115;-65
2022/05/26 11:23:31;;;;;;;;;;;;;;;31.21;27.03;100883.22;4938891;28;98644;-65
2022/05/26 11:26:08;;;;;;;;;;;;;;;30.59;27.55;100884.31;4940900;28;127466;-65
2022/05/26 11:28:44;;;;;;;;;;;;;;;30.45;27.92;100887.06;4935919;28;100820;-64
2022/05/26 11:37:40;;;;;;;;;;;;;;;31.40;27.21;100890.38;4928378;28;98295;-72
2022/05/26 11:40:08;;;;;;;;;;;;;;;32.49;26.15;100885.69;4938664;28;98506;-72
2022/05/26 11:42:46;;;;;;;;;;;;;;;33.07;25.36;100888.91;4920438;28;98505;-73
2022/05/26 11:45:21;;;;;;;;;;;;;;;33.73;25.16;100882.31;4942898;28;101357;-72
2022/05/26 11:48:00;;;;;;;;;;;;;;;34.26;24.48;100883.66;4944389;28;98454;-73
2022/05/26 11:50:50;;;;;;;;;;;;;;;34.52;24.63;100881.38;4938197;28;98816;-65
2022/05/26 11:53:32;;;;;;;;;;;;;;;35.11;23.93;100880.84;4937488;28;98526;-72
2022/05/26 11:56:04;;;;;;;;;;;;;;;34.28;24.43;100895.25;4942327;28;98361;-65
2022/05/26 11:58:40;;;;;;;;;;;;;;;32.86;25.58;100859.13;4937348;28;98573;-72
2022/05/26 12:01:19;;;;;;;;;;;;;;;32.92;25.32;100865.06;4937460;28;98072;-72
2022/05/26 12:04:01;;;;;;;;;;;;;;;32.25;26.06;100879.00;4943683;28;97987;-72
2022/05/26 12:06:37;;;;;;;;;;;;;;;32.42;26.13;100870.97;4944489;28;98779;-65
2022/05/26 12:09:31;;;;;;;;;;;;;;;31.79;26.37;100862.44;4937368;28;99264;-72
2022/05/26 12:12:16;;;;;;;;;;;;;;;31.08;26.99;100870.88;4935997;28;123679;-73
2022/05/26 12:15:03;;;;;;;;;;;;;;;30.71;27.32;100867.25;4937612;28;98239;-72
2022/05/26 12:17:44;;;;;;;;;;;;;;;31.05;26.96;100861.38;4937043;28;98468;-73
2022/05/26 12:20:10;;;;;;;;;;;;;;;31.18;26.61;100875.66;4938841;28;98646;-73
2022/05/26 12:23:04;;;;;;;;;;;;;;;32.19;25.40;100865.91;4938262;28;99111;-73
2022/05/26 12:25:32;;;;;;;;;;;;;;;32.69;25.46;100849.69;4937709;28;98212;-65
2022/05/26 12:28:05;;;;;;;;;;;;;;;32.62;25.39;100855.34;4922980;28;99277;-72
2022/05/26 12:30:39;;;;;;;;;;;;;;;32.36;25.63;100861.44;4937194;28;98424;-65
2022/05/26 12:33:20;;;;;;;;;;;;;;;32.36;25.27;100853.06;4937543;28;98239;-73
2022/05/26 12:35:58;;;;;;;;;;;;;;;31.97;25.89;100842.91;4940113;28;99263;-72
2022/05/26 12:38:50;;;;;;;;;;;;;;;33.27;24.80;100850.03;4938226;28;99189;-64
2022/05/26 12:41:34;;;;;;;;;;;;;;;32.37;25.70;100851.88;4935385;28;97957;-65
2022/05/26 12:44:21;;;;;;;;;;;;;;;33.58;24.64;100828.59;4936038;28;98175;-65
2022/05/26 12:46:53;;;;;;;;;;;;;;;34.01;23.39;100842.06;4942509;28;98005;-65
2022/05/26 12:49:40;;;;;;;;;;;;;;;33.71;23.98;100832.41;4936210;28;104085;-72
2022/05/26 12:52:33;;;;;;;;;;;;;;;33.88;23.79;100835.44;4937392;28;98152;-73
2022/05/26 12:55:05;;;;;;;;;;;;;;;33.51;23.52;100830.66;4937115;28;98883;-65
2022/05/26 12:57:31;;;;;;;;;;;;;;;32.26;24.69;100837.97;4951779;28;98099;-73
2022/05/26 13:00:28;;;;;;;;;;;;;;;31.30;25.30;100839.09;4952944;28;98429;-73
2022/05/26 13:02:57;;;;;;;;;;;;;;;30.31;26.02;100829.47;4936734;28;99031;-65
2022/05/26 13:05:25;;;;;;;;;;;;;;;29.56;26.49;100829.88;4936539;28;97995;-65
2022/05/26 13:07:53;;;;;;;;;;;;;;;28.93;27.33;100836.56;4936983;28;98783;-65
2022/05/26 13:10:25;;;;;;;;;;;;;;;28.39;27.75;100843.56;4933966;28;99046;-65
2022/05/26 13:12:50;;;;;;;;;;;;;;;27.92;27.95;100833.88;4918509;28;98241;-73
2022/05/26 13:15:24;;;;;;;;;;;;;;;27.56;28.33;100841.69;4937577;28;114394;-73
2022/05/26 13:17:50;;;;;;;;;;;;;;;27.28;28.57;100835.72;4940054;28;97998;-73
2022/05/26 13:20:35;;;;;;;;;;;;;;;26.92;29.06;100846.97;4938180;28;98821;-73
2022/05/26 13:23:02;;;;;;;;;;;;;;;26.52;29.61;100838.34;4942703;28;98156;-65
2022/05/26 13:25:31;;;;;;;;;;;;;;;26.22;30.06;100836.19;4939233;28;98267;-65
2022/05/26 13:28:03;;;;;;;;;;;;;;;25.94;30.44;100836.41;4923469;28;97976;-65
2022/05/26 13:33:22;;;;;;;;;;;;;;;25.47;30.99;100848.38;4935594;28;98269;-73
2022/05/26 13:35:59;;;;;;;;;;;;;;;25.78;30.69;100830.13;4934478;28;98862;-65
2022/05/26 13:38:29;;;;;;;;;;;;;;;26.95;29.99;100828.03;4936994;28;97976;-72